createdAt,value
2023-05-24T04:19:22.396Z,41
2023-05-24T04:24:26.756Z,41
2023-05-24T04:29:29.064Z,42
2023-05-24T04:34:31.386Z,42
2023-05-24T04:39:33.536Z,42
2023-05-24T04:44:40.445Z,43
2023-05-24T04:49:43.333Z,43
2023-05-24T04:54:46.207Z,43
2023-05-24T04:59:54.446Z,43
2023-05-24T05:05:01.378Z,43
2023-05-24T05:10:04.269Z,43
2023-05-24T05:15:07.361Z,43
2023-05-24T05:20:09.668Z,43
2023-05-24T05:25:11.744Z,42
2023-05-24T05:30:14.629Z,42
2023-05-24T05:35:21.420Z,42
2023-05-24T05:40:24.294Z,42
2023-05-24T05:45:28.339Z,43
2023-05-24T05:50:31.248Z,43
2023-05-24T05:55:33.360Z,43
2023-05-24T06:00:35.519Z,44
2023-05-24T06:05:42.486Z,44
2023-05-24T06:10:45.458Z,44
2023-05-24T06:15:48.223Z,44
2023-05-24T06:20:50.369Z,44
2023-05-24T06:25:57.150Z,44
2023-05-24T06:30:59.396Z,44
2023-05-24T06:36:02.459Z,44
2023-05-24T06:41:04.512Z,43
2023-05-24T06:46:06.840Z,43
2023-05-24T06:51:10.027Z,43
2023-05-24T06:56:12.968Z,43
2023-05-24T07:01:16.649Z,43
2023-05-24T07:06:19.148Z,43
2023-05-24T07:11:21.013Z,43
2023-05-24T07:16:23.274Z,43
2023-05-24T07:21:26.207Z,43
2023-05-24T07:26:29.288Z,43
2023-05-24T07:31:32.910Z,43
2023-05-24T07:36:35.961Z,43
2023-05-24T07:41:38.815Z,42
2023-05-24T07:46:41.037Z,42
2023-05-24T07:51:49.550Z,41
2023-05-24T07:56:55.669Z,41
2023-05-24T08:01:59.382Z,40
2023-05-24T08:07:01.764Z,41
2023-05-24T08:12:04.571Z,41
2023-05-24T08:17:06.808Z,40
2023-05-24T08:22:09.027Z,41
2023-05-24T08:27:13.352Z,41
2023-05-24T08:32:22.561Z,41
2023-05-24T08:37:25.651Z,40
2023-05-24T08:42:27.716Z,40
2023-05-24T08:47:29.952Z,40
2023-05-24T08:52:32.072Z,40
2023-05-24T08:57:35.164Z,39
2023-05-24T09:02:38.061Z,39
2023-05-24T09:07:41.003Z,39
2023-05-24T09:12:43.256Z,39
2023-05-24T09:17:45.359Z,38
2023-05-24T09:22:47.507Z,38
2023-05-24T09:27:54.356Z,39
2023-05-24T09:32:57.587Z,39
2023-05-24T09:37:59.632Z,38
2023-05-24T09:43:01.892Z,37
2023-05-24T09:48:11.613Z,37
2023-05-24T09:53:13.716Z,37
2023-05-24T09:58:15.867Z,36
2023-05-24T10:03:18.137Z,36
2023-05-24T10:08:20.280Z,36
2023-05-24T10:13:22.631Z,36
2023-05-24T10:18:25.508Z,36
2023-05-24T10:23:27.843Z,36
2023-05-24T10:28:29.901Z,36
2023-05-24T10:33:32.058Z,36
2023-05-24T10:38:34.376Z,36
2023-05-24T10:43:38.836Z,36
2023-05-24T10:48:41.659Z,37
2023-05-24T10:53:45.309Z,37
2023-05-24T10:58:49.720Z,37
2023-05-24T11:03:52.158Z,37
2023-05-24T11:08:54.170Z,37
2023-05-24T11:13:57.410Z,37
2023-05-24T11:18:59.336Z,36
2023-05-24T11:24:02.398Z,35
2023-05-24T11:29:05.372Z,35
2023-05-24T11:34:06.593Z,34
2023-05-24T11:39:09.591Z,34
2023-05-24T11:44:11.671Z,34
2023-05-24T11:49:13.813Z,34
2023-05-24T11:54:17.679Z,34
2023-05-24T11:59:20.474Z,35
2023-05-24T12:04:24.945Z,35
2023-05-24T12:09:30.363Z,35
2023-05-24T12:14:32.564Z,35
2023-05-24T12:19:37.926Z,36
2023-05-24T12:24:40.007Z,36
2023-05-24T12:29:43.050Z,36
2023-05-24T12:34:46.826Z,36
2023-05-24T12:39:48.953Z,37
2023-05-24T12:44:51.926Z,36
2023-05-24T12:49:58.680Z,37
2023-05-24T12:55:01.057Z,37
2023-05-24T13:00:05.369Z,37
2023-05-24T13:05:10.819Z,38
2023-05-24T13:10:12.996Z,38
2023-05-24T13:15:15.071Z,39
2023-05-24T13:20:18.013Z,40
2023-05-24T13:25:21.650Z,40
2023-05-24T13:30:24.012Z,41
2023-05-24T13:35:26.173Z,42
2023-05-24T13:40:29.249Z,42
2023-05-24T13:45:32.083Z,43
2023-05-24T13:50:34.419Z,43
2023-05-24T13:55:36.543Z,44
2023-05-24T14:00:38.833Z,44
2023-05-24T14:05:41.858Z,44
2023-05-24T14:10:43.959Z,44
2023-05-24T14:15:48.468Z,44
2023-05-24T14:20:52.245Z,43
2023-05-24T14:25:55.867Z,42
2023-05-24T14:30:57.980Z,42
2023-05-24T14:36:00.158Z,42
2023-05-24T14:41:02.320Z,41
2023-05-24T14:46:04.514Z,40
2023-05-24T14:51:11.315Z,40
2023-05-24T14:56:13.513Z,39
2023-05-24T15:01:15.808Z,39
2023-05-24T15:06:17.893Z,39
2023-05-24T15:11:21.561Z,39
2023-05-24T15:16:24.440Z,39
2023-05-24T15:21:32.719Z,38
2023-05-24T15:26:39.620Z,38
2023-05-24T15:31:42.541Z,38
2023-05-24T15:36:44.768Z,37
2023-05-24T15:41:49.237Z,37
2023-05-24T15:46:52.203Z,37
2023-05-24T15:56:58.954Z,38
2023-05-24T16:02:01.764Z,38
2023-05-24T16:07:03.930Z,38
2023-05-24T16:17:08.517Z,38
2023-05-24T16:22:10.494Z,38
2023-05-24T16:27:15.024Z,38
2023-05-24T16:32:17.676Z,38
2023-05-24T16:37:19.959Z,38
2023-05-24T16:42:23.759Z,38
2023-05-24T16:47:28.065Z,38
2023-05-24T16:52:28.038Z,38
2023-05-24T16:57:31.842Z,39
2023-05-24T17:02:38.863Z,38
2023-05-24T17:07:40.863Z,39
2023-05-24T17:12:47.626Z,39
2023-05-24T17:17:49.792Z,39
2023-05-24T17:22:58.008Z,39
2023-05-24T17:28:00.182Z,39
2023-05-24T17:33:04.015Z,39
2023-05-24T17:38:10.696Z,38
2023-05-24T17:43:16.014Z,38
2023-05-24T17:48:18.145Z,38
2023-05-24T17:53:31.150Z,38
2023-05-24T17:58:22.512Z,37
2023-05-24T18:03:24.632Z,37
2023-05-24T18:08:28.386Z,37
2023-05-24T18:13:31.409Z,37
2023-05-24T18:18:37.078Z,38
2023-05-24T18:23:39.298Z,38
2023-05-24T18:28:43.890Z,39
2023-05-24T18:33:45.976Z,39
2023-05-24T18:38:48.178Z,39
2023-05-24T18:43:56.475Z,40
2023-05-24T18:49:01.794Z,40
2023-05-24T18:54:04.758Z,40
2023-05-24T18:59:09.465Z,40
2023-05-24T19:04:10.797Z,40
2023-05-24T19:09:12.932Z,40
2023-05-24T19:14:16.762Z,40
2023-05-24T19:19:19.683Z,39
2023-05-24T19:24:22.679Z,39
2023-05-24T19:29:27.422Z,39
2023-05-24T19:34:27.057Z,38
2023-05-24T19:39:29.230Z,38
2023-05-24T19:44:36.516Z,38
2023-05-24T19:49:36.208Z,38
2023-05-24T19:54:39.831Z,38
2023-05-24T19:59:42.073Z,38
2023-05-24T20:04:44.356Z,38
2023-05-24T20:09:46.520Z,38
2023-05-24T20:14:49.464Z,39
2023-05-24T20:19:54.004Z,39
2023-05-24T20:24:54.522Z,39
2023-05-24T20:30:02.860Z,39
2023-05-24T20:35:07.405Z,39
2023-05-24T20:40:09.553Z,40
2023-05-24T20:45:16.362Z,40
2023-05-24T20:50:18.484Z,40
2023-05-24T20:55:20.751Z,40
2023-05-24T21:00:24.509Z,40
2023-05-24T21:05:27.301Z,40
2023-05-24T21:10:29.592Z,41
2023-05-24T21:15:33.267Z,41
2023-05-24T21:20:35.426Z,41
2023-05-24T21:25:37.543Z,41
2023-05-24T21:30:39.713Z,41
2023-05-24T21:35:44.423Z,41
2023-05-24T21:40:48.487Z,41
2023-05-24T21:45:50.661Z,41
2023-05-24T21:50:52.768Z,41
2023-05-24T21:55:55.069Z,41
2023-05-24T22:01:00.287Z,41
2023-05-24T22:06:02.377Z,41
2023-05-24T22:11:06.253Z,41
2023-05-24T22:16:09.358Z,41
2023-05-24T22:21:11.528Z,42
2023-05-24T22:26:13.775Z,42
2023-05-24T22:31:16.685Z,42
2023-05-24T22:36:19.522Z,42
2023-05-24T22:41:22.527Z,42
2023-05-24T22:46:24.855Z,42
2023-05-24T22:51:26.800Z,42
2023-05-24T22:56:31.191Z,42
2023-05-24T23:01:34.139Z,42
2023-05-24T23:06:36.210Z,42
2023-05-24T23:11:38.524Z,42
